Ana Sayfa
METAR-TAF:

METAR-TAF

Havaalanları :

Curaçao, Hollanda Antilleri

Enlem: 12-12N, Boylam: 068-58W, yükseklik: 9 m

Güncel hava durumu gözlemi

Rapor saat 07:00 UTC de 2 saat ve 7 dakika önce yapıldı.
Rüzgar doğudan 11 kt
Sıcaklık 26°C
Nem 84%
Basınç 1013 hPa
Görüş mesafesi 10 km veya daha fazla
1800 ft yükseklikte az bulutlu

METAR: TNCC 190700Z 10011KT 9999 FEW018 26/23 Q1013 NOSIG

Saat: 05:07 (09:07 UTC)

Tahmin

Rapor saat 04:00 UTC de 5 saat ve 7 dakika önce yapıldı.
Ayın 19'si saat 06 UTC'den ayın 20'si saat 06 UTC'ye kadar geçerli Tahmin
Rüzgar doğudan 12 kt
Görüş mesafesi 10 km veya daha fazla
1800 ft yükseklikte parçalı bulutlu

TAF: TNCC 190400Z 1906/2006 09012KT 9999 SCT018

4.000'den fazla havaalanı için hava durumu gözlemleri ve tahminleri (METAR ve TAF raporları).

Kullanılabilir istasyonlar harita üzerinde sarı ve kırmızı noktalarla gösterilir.

İstasyonun adını görmek için fareyi noktanın üzerinde gezdirin.

Sonrasında hava gözlem ve tahminlerini görmek için tıklayın.

Haritayı değiştirmek için: yaklaştırmak için siyah artı işaretli yeşil düğmeye ve uzaklaştırmak için de eksi işaretli düğmeye hızla tıklayın; bitişik haritalar için yeşil okları kullanın.


METAR-TAF: